Time;durP1;ratioP1;P1;durP2;ratioP2;P2;SDS_P1;SDS_P2;PMS_P1;PMS_P2;Temp;Humidity;BMP_temperature;BMP_pressure;BME280_temperature;BME280_humidity;BME280_pressure;Samples;Min_cycle;Max_cycle;Signal;HPM_P1;HPM_P2
2023/07/21 00:02:25;;;;;;;8.60;7.70;;;14.40;99.90;;;;;;5114596;27;20077;-39
2023/07/21 00:04:51;;;;;;;8.85;7.85;;;14.40;99.90;;;;;;5116463;27;20431;-39
2023/07/21 00:07:17;;;;;;;7.40;6.70;;;14.30;99.90;;;;;;5114202;27;20039;-39
2023/07/21 00:09:43;;;;;;;7.40;6.43;;;14.30;99.90;;;;;;5114127;27;20043;-39
2023/07/21 00:12:09;;;;;;;7.63;6.93;;;14.30;99.90;;;;;;5113730;27;20047;-39
2023/07/21 00:14:35;;;;;;;7.63;6.80;;;14.20;99.90;;;;;;5114051;27;20469;-39
2023/07/21 00:17:04;;;;;;;7.32;6.55;;;14.20;99.90;;;;;;5112220;27;20066;-38
2023/07/21 00:19:30;;;;;;;8.18;7.38;;;14.20;99.90;;;;;;5112508;27;20447;-39
2023/07/21 00:21:56;;;;;;;8.38;6.68;;;14.20;99.90;;;;;;5112375;27;20088;-39
2023/07/21 00:24:21;;;;;;;9.13;7.28;;;14.10;99.90;;;;;;5111867;27;20147;-39
2023/07/21 00:26:47;;;;;;;9.65;7.00;;;14.10;99.90;;;;;;5113763;27;20455;-39
2023/07/21 00:29:13;;;;;;;11.32;8.07;;;14.00;99.90;;;;;;5113425;27;20039;-39
2023/07/21 00:31:39;;;;;;;8.35;7.00;;;13.90;99.90;;;;;;5113864;27;20046;-39
2023/07/21 00:34:05;;;;;;;8.48;7.68;;;13.80;99.90;;;;;;5112307;27;20433;-39
2023/07/21 00:36:31;;;;;;;7.93;7.13;;;13.70;99.90;;;;;;5113166;27;20101;-39
2023/07/21 00:38:58;;;;;;;8.15;7.35;;;13.60;99.90;;;;;;5117259;27;20631;-39
2023/07/21 00:41:25;;;;;;;8.13;7.35;;;13.60;99.90;;;;;;5114226;27;20370;-39
2023/07/21 00:43:51;;;;;;;8.80;6.50;;;13.60;99.90;;;;;;5074019;27;20039;-38
2023/07/21 00:46:17;;;;;;;8.80;7.03;;;13.60;99.90;;;;;;5113059;27;20047;-39
2023/07/21 00:48:43;;;;;;;10.60;7.88;;;13.50;99.90;;;;;;5095016;27;20041;-39
2023/07/21 00:51:10;;;;;;;10.93;6.28;;;13.50;99.90;;;;;;5113435;27;20289;-39
2023/07/21 00:53:36;;;;;;;8.48;7.65;;;13.60;99.90;;;;;;5112859;27;20047;-38
2023/07/21 00:56:02;;;;;;;9.68;7.13;;;13.60;99.90;;;;;;5113333;27;20485;-38
2023/07/21 00:58:30;;;;;;;7.40;6.57;;;13.60;99.90;;;;;;5115416;27;20043;-39
2023/07/21 01:00:56;;;;;;;7.57;6.45;;;13.60;99.90;;;;;;5114860;27;20046;-39
2023/07/21 01:03:22;;;;;;;8.15;7.13;;;13.60;99.90;;;;;;5114269;27;20035;-39
2023/07/21 01:05:52;;;;;;;13.88;7.00;;;13.60;99.90;;;;;;5114104;27;20070;-38
2023/07/21 01:08:19;;;;;;;8.48;7.57;;;13.60;99.90;;;;;;5115558;27;20042;-38
2023/07/21 01:10:46;;;;;;;10.98;6.25;;;13.60;99.90;;;;;;5114282;27;20442;-39
2023/07/21 01:13:13;;;;;;;8.20;7.32;;;13.60;99.90;;;;;;5111819;27;20049;-39
2023/07/21 01:15:45;;;;;;;8.13;7.32;;;13.50;99.90;;;;;;5110153;27;20043;-38
2023/07/21 01:18:14;;;;;;;8.35;7.55;;;13.50;99.90;;;;;;5112743;27;20496;-39
2023/07/21 01:20:40;;;;;;;8.48;7.55;;;13.50;99.90;;;;;;5113480;27;20126;-39
2023/07/21 01:23:30;;;;;;;9.05;8.15;;;13.50;99.90;;;;;;5109422;27;20054;-39
2023/07/21 01:25:58;;;;;;;9.73;8.23;;;13.40;99.90;;;;;;5093352;27;20160;-38
2023/07/21 01:28:24;;;;;;;10.43;7.90;;;13.40;99.90;;;;;;5112541;27;20537;-39
2023/07/21 01:30:53;;;;;;;9.82;7.57;;;13.40;99.90;;;;;;5093612;27;20049;-39
2023/07/21 01:33:20;;;;;;;8.80;7.90;;;13.40;99.90;;;;;;5110586;27;20467;-39
2023/07/21 01:35:50;;;;;;;9.90;6.97;;;13.40;99.90;;;;;;5113429;27;20039;-39
2023/07/21 01:38:19;;;;;;;11.63;7.93;;;13.40;99.90;;;;;;5114979;27;20123;-38
2023/07/21 01:40:46;;;;;;;9.70;7.90;;;13.40;99.90;;;;;;5112416;27;20043;-38
2023/07/21 01:43:14;;;;;;;9.52;7.38;;;13.30;99.90;;;;;;5109964;27;20044;-39
2023/07/21 01:45:41;;;;;;;9.60;7.65;;;13.30;99.90;;;;;;5114434;27;20768;-38
2023/07/21 01:48:07;;;;;;;10.95;7.55;;;13.20;99.90;;;;;;5114132;27;21545;-38
2023/07/21 01:50:34;;;;;;;9.02;7.88;;;13.20;99.90;;;;;;5114933;27;20492;-39
2023/07/21 01:53:06;;;;;;;8.82;7.40;;;13.10;99.90;;;;;;5113206;27;20051;-38
2023/07/21 01:55:46;;;;;;;11.43;7.80;;;13.10;99.90;;;;;;5112928;27;20047;-38
2023/07/21 01:58:14;;;;;;;10.80;8.13;;;13.00;99.90;;;;;;5112866;27;20449;-38
2023/07/21 02:00:42;;;;;;;11.25;8.50;;;13.00;99.90;;;;;;5112205;27;20047;-38
2023/07/21 02:03:09;;;;;;;10.15;8.75;;;13.00;99.90;;;;;;5111112;27;20446;-38
2023/07/21 02:05:34;;;;;;;11.05;7.90;;;12.90;99.90;;;;;;5113059;27;20058;-39
2023/07/21 02:08:00;;;;;;;8.93;7.97;;;12.90;99.90;;;;;;5114754;27;20453;-38
2023/07/21 02:10:26;;;;;;;9.75;8.27;;;13.00;99.90;;;;;;5129759;27;20449;-38
2023/07/21 02:12:51;;;;;;;9.48;7.88;;;13.00;99.90;;;;;;5136052;27;20054;-38
2023/07/21 02:15:18;;;;;;;10.30;7.85;;;12.90;99.90;;;;;;5090564;28;20394;-38
2023/07/21 02:17:44;;;;;;;10.02;7.20;;;12.90;99.90;;;;;;5097513;28;20423;-38
2023/07/21 02:20:11;;;;;;;8.25;7.45;;;12.80;99.90;;;;;;5116457;27;20097;-38
2023/07/21 02:22:38;;;;;;;8.25;7.40;;;12.80;99.90;;;;;;5115511;27;20039;-38
2023/07/21 02:25:04;;;;;;;9.45;8.43;;;12.70;99.90;;;;;;5110161;27;20046;-39
2023/07/21 02:27:31;;;;;;;9.15;8.25;;;12.70;99.90;;;;;;5116658;27;20116;-39
2023/07/21 02:29:57;;;;;;;8.55;7.75;;;12.70;99.90;;;;;;5115913;27;20047;-38
2023/07/21 02:32:23;;;;;;;7.68;6.97;;;12.80;99.90;;;;;;5096885;28;20054;-39
2023/07/21 02:34:50;;;;;;;6.93;6.10;;;12.80;99.90;;;;;;5115937;28;20452;-38
2023/07/21 02:37:15;;;;;;;8.38;7.35;;;12.80;99.90;;;;;;5116098;27;20443;-38
2023/07/21 02:39:41;;;;;;;8.05;6.93;;;12.70;99.90;;;;;;5111185;27;20055;-38
2023/07/21 02:42:07;;;;;;;8.32;6.60;;;12.70;99.90;;;;;;5135119;27;20046;-38
2023/07/21 02:44:33;;;;;;;11.75;7.18;;;12.70;99.90;;;;;;5117019;27;20039;-38
2023/07/21 02:46:58;;;;;;;8.88;6.70;;;12.70;99.90;;;;;;5115489;27;20046;-38
2023/07/21 02:49:24;;;;;;;7.78;6.60;;;12.70;99.90;;;;;;5115800;27;20038;-39
2023/07/21 02:51:50;;;;;;;7.13;6.40;;;12.60;99.90;;;;;;5114871;27;20434;-39
2023/07/21 02:54:15;;;;;;;6.90;6.30;;;12.50;99.90;;;;;;5097319;27;20039;-38
2023/07/21 02:56:41;;;;;;;6.45;5.72;;;12.40;99.90;;;;;;5115643;27;20497;-38
2023/07/21 02:59:09;;;;;;;8.20;6.45;;;12.30;99.90;;;;;;5097103;27;20468;-39
2023/07/21 03:01:35;;;;;;;7.85;6.75;;;12.30;99.90;;;;;;5096397;28;20058;-38
2023/07/21 03:04:03;;;;;;;8.43;7.18;;;12.30;99.90;;;;;;5115219;27;20380;-38
2023/07/21 03:06:30;;;;;;;8.68;7.78;;;12.20;99.90;;;;;;5113328;27;20481;-38
2023/07/21 03:08:58;;;;;;;8.38;7.22;;;12.20;99.90;;;;;;5115971;27;20092;-38
2023/07/21 03:11:24;;;;;;;8.68;7.25;;;12.20;99.90;;;;;;5115393;27;20043;-38
2023/07/21 03:13:50;;;;;;;11.13;7.25;;;12.20;99.90;;;;;;5113429;27;20100;-38
2023/07/21 03:16:16;;;;;;;7.45;6.53;;;12.20;99.90;;;;;;5084326;28;20400;-38
2023/07/21 03:18:42;;;;;;;8.45;6.40;;;12.20;99.90;;;;;;5096930;27;20047;-38
2023/07/21 03:21:08;;;;;;;6.40;5.10;;;12.30;99.90;;;;;;5118875;27;20060;-38
2023/07/21 03:23:33;;;;;;;7.05;5.85;;;12.20;99.90;;;;;;5111946;27;20522;-38
2023/07/21 03:25:59;;;;;;;6.60;6.00;;;12.30;99.90;;;;;;5140030;27;20038;-38
2023/07/21 03:28:26;;;;;;;7.13;5.70;;;12.30;99.90;;;;;;5139892;27;20395;-38
2023/07/21 03:30:59;;;;;;;7.05;6.38;;;12.30;99.90;;;;;;5139379;27;20655;-38
2023/07/21 03:33:25;;;;;;;7.40;5.68;;;12.20;99.90;;;;;;5138174;27;20034;-38
2023/07/21 03:36:01;;;;;;;6.90;6.20;;;12.20;99.90;;;;;;5139599;27;20047;-39
2023/07/21 03:38:28;;;;;;;7.78;6.70;;;12.20;99.90;;;;;;5139219;27;20458;-38
2023/07/21 03:41:01;;;;;;;10.27;7.50;;;12.20;99.90;;;;;;5139676;27;20152;-38
2023/07/21 03:43:27;;;;;;;9.32;7.28;;;12.20;99.90;;;;;;5128876;27;20070;-38
2023/07/21 03:46:00;;;;;;;8.48;7.47;;;12.20;99.90;;;;;;5119476;27;20553;-38
2023/07/21 03:48:27;;;;;;;9.88;7.25;;;12.20;99.90;;;;;;5118577;27;20069;-39
2023/07/21 03:51:02;;;;;;;7.55;6.60;;;12.30;99.90;;;;;;5119058;27;20065;-38
2023/07/21 03:53:28;;;;;;;8.35;6.70;;;12.30;99.90;;;;;;5117278;27;20043;-39
2023/07/21 03:55:54;;;;;;;9.18;7.25;;;12.40;99.90;;;;;;5118823;27;20041;-38
2023/07/21 03:58:20;;;;;;;8.85;6.85;;;12.50;99.90;;;;;;5100327;27;20051;-38
2023/07/21 04:00:46;;;;;;;7.38;6.63;;;12.50;99.90;;;;;;5095925;27;20039;-38
2023/07/21 04:03:13;;;;;;;7.80;7.00;;;12.50;99.90;;;;;;5080333;27;20055;-38
2023/07/21 04:05:38;;;;;;;9.60;6.70;;;12.60;99.90;;;;;;5117002;27;20043;-38
2023/07/21 04:08:04;;;;;;;7.22;5.97;;;12.60;99.90;;;;;;5118082;27;20618;-38
2023/07/21 04:10:31;;;;;;;8.32;6.63;;;12.70;99.90;;;;;;5118495;27;20058;-39
2023/07/21 04:12:57;;;;;;;9.48;6.90;;;12.70;99.90;;;;;;5117272;27;20128;-38
2023/07/21 04:15:25;;;;;;;8.85;7.22;;;12.70;99.90;;;;;;5106339;27;20526;-38
2023/07/21 04:17:54;;;;;;;6.85;6.07;;;12.70;99.90;;;;;;5112160;27;20038;-38
2023/07/21 04:20:21;;;;;;;7.50;6.32;;;12.70;99.90;;;;;;5138449;27;20519;-38
2023/07/21 04:22:47;;;;;;;7.88;6.47;;;12.70;99.90;;;;;;5119364;27;20587;-38
2023/07/21 04:25:12;;;;;;;7.07;6.38;;;12.70;99.90;;;;;;5126610;27;20395;-38
2023/07/21 04:27:38;;;;;;;6.65;5.88;;;12.70;99.90;;;;;;5138037;27;20099;-38
2023/07/21 04:30:04;;;;;;;8.65;6.22;;;12.80;99.90;;;;;;5092188;27;20051;-38
2023/07/21 04:32:33;;;;;;;8.50;6.80;;;12.90;99.90;;;;;;5137140;27;20106;-38
2023/07/21 04:34:59;;;;;;;8.32;6.55;;;13.00;99.90;;;;;;5136982;27;20039;-38
2023/07/21 04:37:25;;;;;;;9.07;6.55;;;13.40;99.90;;;;;;5138581;27;20058;-39
2023/07/21 04:39:51;;;;;;;9.07;6.45;;;13.80;99.90;;;;;;5138510;27;20034;-39
2023/07/21 04:42:17;;;;;;;7.43;6.72;;;14.10;99.90;;;;;;5136345;27;20039;-38
2023/07/21 04:44:44;;;;;;;8.45;6.47;;;14.40;99.90;;;;;;5098121;27;20122;-39
2023/07/21 04:47:10;;;;;;;8.77;6.47;;;14.70;99.90;;;;;;5116454;27;20043;-39
2023/07/21 04:49:36;;;;;;;7.07;6.38;;;15.50;99.90;;;;;;5116051;27;20080;-39
2023/07/21 04:52:03;;;;;;;8.65;5.88;;;16.40;99.90;;;;;;5115842;27;20043;-39
2023/07/21 04:54:29;;;;;;;7.57;6.60;;;17.00;99.90;;;;;;5116396;27;20296;-39
2023/07/21 04:56:55;;;;;;;7.05;6.18;;;17.50;99.90;;;;;;5117391;27;20131;-39
2023/07/21 04:59:21;;;;;;;8.77;6.50;;;17.60;99.90;;;;;;5117017;27;20358;-39
2023/07/21 05:01:47;;;;;;;7.28;6.00;;;17.10;99.90;;;;;;5115945;27;20054;-39
2023/07/21 05:04:14;;;;;;;10.93;6.43;;;17.20;99.90;;;;;;5115845;27;20042;-39
2023/07/21 05:06:43;;;;;;;8.10;6.45;;;17.50;99.90;;;;;;5097125;27;20051;-39
2023/07/21 05:09:10;;;;;;;12.40;6.72;;;17.60;99.90;;;;;;5116782;27;20043;-39
2023/07/21 05:11:35;;;;;;;7.07;6.47;;;17.80;99.90;;;;;;5115648;27;20051;-40
2023/07/21 05:14:03;;;;;;;6.60;6.00;;;18.50;99.90;;;;;;5114985;27;20082;-40
2023/07/21 05:16:29;;;;;;;9.27;6.53;;;19.30;99.90;;;;;;5107273;27;20047;-40
2023/07/21 05:18:54;;;;;;;10.45;6.93;;;19.20;99.90;;;;;;5117015;27;20458;-40
2023/07/21 05:21:20;;;;;;;8.65;6.95;;;19.20;99.90;;;;;;5097505;27;20137;-40
2023/07/21 05:23:46;;;;;;;8.50;7.03;;;19.80;99.90;;;;;;5110214;27;20385;-40
2023/07/21 05:26:11;;;;;;;8.35;7.55;;;20.30;99.90;;;;;;5116759;27;20035;-40
2023/07/21 05:28:38;;;;;;;8.98;8.07;;;20.90;99.90;;;;;;5098246;27;20154;-40
2023/07/21 05:31:03;;;;;;;8.10;7.30;;;21.40;99.90;;;;;;5116780;27;20043;-40
2023/07/21 05:33:29;;;;;;;9.20;7.90;;;21.40;99.90;;;;;;5115517;27;20452;-40
2023/07/21 05:36:10;;;;;;;8.25;6.97;;;21.60;99.90;;;;;;5117029;27;20042;-41
2023/07/21 05:38:37;;;;;;;8.00;7.20;;;21.60;99.90;;;;;;5097944;27;20406;-40
2023/07/21 05:41:04;;;;;;;8.43;6.88;;;21.60;99.90;;;;;;5116159;27;20050;-41
2023/07/21 05:43:30;;;;;;;8.40;7.53;;;21.90;99.90;;;;;;5112136;27;20154;-40
2023/07/21 05:45:55;;;;;;;8.80;7.45;;;22.30;99.90;;;;;;5116064;27;20045;-42
2023/07/21 05:48:21;;;;;;;8.48;7.22;;;22.60;99.90;;;;;;5115938;27;20035;-40
2023/07/21 05:50:47;;;;;;;7.75;6.13;;;22.90;99.90;;;;;;5116223;27;20499;-41
2023/07/21 05:53:14;;;;;;;7.43;6.65;;;23.00;99.90;;;;;;5114653;27;20173;-42
2023/07/21 05:55:42;;;;;;;7.45;6.68;;;23.10;99.90;;;;;;5115468;27;20572;-40
2023/07/21 05:58:11;;;;;;;9.02;6.88;;;23.20;99.90;;;;;;5135292;27;20538;-41
2023/07/21 06:00:38;;;;;;;8.65;6.80;;;23.80;99.90;;;;;;5136161;27;20219;-40
2023/07/21 06:03:05;;;;;;;8.15;6.80;;;23.90;99.90;;;;;;5103423;27;20047;-42
2023/07/21 06:05:32;;;;;;;8.75;5.80;;;24.10;99.60;;;;;;5122505;27;20043;-42
2023/07/21 06:07:57;;;;;;;6.15;5.28;;;24.40;99.70;;;;;;5118118;27;20567;-42
2023/07/21 06:10:23;;;;;;;5.75;4.60;;;24.30;99.50;;;;;;5136283;27;20039;-41
2023/07/21 06:12:49;;;;;;;7.20;4.80;;;24.80;98.70;;;;;;5135228;27;20452;-41
2023/07/21 06:15:15;;;;;;;5.93;4.93;;;25.40;97.90;;;;;;5092335;28;20485;-41
2023/07/21 06:17:41;;;;;;;4.70;3.85;;;25.70;98.00;;;;;;5116009;27;20575;-41
2023/07/21 06:20:09;;;;;;;7.13;3.78;;;25.30;97.20;;;;;;5087533;28;20055;-42
2023/07/21 06:22:35;;;;;;;5.75;4.40;;;24.60;97.30;;;;;;5083362;28;20472;-41
2023/07/21 06:25:03;;;;;;;7.65;4.22;;;24.50;98.00;;;;;;5102946;28;20059;-41
2023/07/21 06:27:29;;;;;;;6.55;4.20;;;24.00;98.80;;;;;;5103888;27;20516;-43
2023/07/21 06:29:55;;;;;;;6.43;4.13;;;23.40;99.80;;;;;;5111462;28;20027;-40
2023/07/21 06:32:21;;;;;;;4.65;3.75;;;23.00;99.80;;;;;;5111567;27;20039;-40
2023/07/21 06:34:47;;;;;;;6.82;3.60;;;22.50;99.90;;;;;;5110569;27;20115;-43
2023/07/21 06:37:13;;;;;;;6.55;3.92;;;22.20;99.90;;;;;;5106273;27;20160;-42
2023/07/21 06:39:38;;;;;;;6.72;4.10;;;22.00;99.90;;;;;;5105824;27;20039;-41
2023/07/21 06:42:05;;;;;;;4.10;3.70;;;21.80;99.90;;;;;;5105409;27;20164;-41
2023/07/21 06:44:32;;;;;;;8.23;4.07;;;21.50;99.90;;;;;;5104941;27;20027;-40
2023/07/21 06:46:58;;;;;;;5.70;4.00;;;21.80;99.90;;;;;;5092043;28;20071;-43
2023/07/21 06:49:23;;;;;;;6.82;4.20;;;22.90;99.90;;;;;;5112282;27;20629;-40
2023/07/21 06:51:49;;;;;;;7.35;4.03;;;23.50;99.90;;;;;;5110307;27;20039;-41
2023/07/21 06:54:15;;;;;;;6.70;4.28;;;23.70;99.30;;;;;;5095221;27;20534;-40
2023/07/21 06:56:40;;;;;;;5.25;3.97;;;23.30;99.40;;;;;;5114914;27;20391;-41
2023/07/21 06:59:06;;;;;;;9.05;4.53;;;22.80;99.90;;;;;;5115147;27;20043;-41
2023/07/21 07:01:32;;;;;;;7.53;3.65;;;22.30;99.90;;;;;;5113944;27;20894;-41
2023/07/21 07:03:59;;;;;;;3.53;3.08;;;22.70;99.90;;;;;;5096789;27;20423;-41
2023/07/21 07:06:27;;;;;;;5.22;3.45;;;23.60;99.90;;;;;;5114986;27;20066;-41
2023/07/21 07:08:53;;;;;;;6.30;3.72;;;24.50;99.10;;;;;;5116944;27;20042;-41
2023/07/21 07:11:18;;;;;;;6.40;4.00;;;24.00;98.50;;;;;;5116628;27;20433;-42
2023/07/21 07:13:44;;;;;;;5.72;3.40;;;23.40;99.60;;;;;;5117656;27;20088;-42
2023/07/21 07:16:11;;;;;;;4.95;3.33;;;23.80;99.80;;;;;;5110440;27;20047;-41
2023/07/21 07:18:37;;;;;;;3.65;2.90;;;25.00;98.80;;;;;;5116272;27;20492;-41
2023/07/21 07:21:03;;;;;;;4.13;2.53;;;25.70;97.90;;;;;;5115272;27;20043;-42
2023/07/21 07:23:29;;;;;;;4.00;3.10;;;26.30;97.20;;;;;;5112526;27;20039;-42
2023/07/21 07:25:55;;;;;;;3.58;2.85;;;26.00;96.50;;;;;;5117958;27;20125;-41
2023/07/21 07:28:21;;;;;;;4.18;2.97;;;25.50;95.70;;;;;;5116616;27;20482;-41
2023/07/21 07:30:48;;;;;;;4.15;2.65;;;25.60;95.30;;;;;;5120879;27;20372;-42
2023/07/21 07:33:15;;;;;;;6.30;2.72;;;25.70;96.50;;;;;;5116184;27;20042;-42
2023/07/21 07:35:52;;;;;;;5.53;3.22;;;25.70;96.40;;;;;;5113864;27;20117;-43
2023/07/21 07:38:26;;;;;;;4.32;2.85;;;25.70;96.50;;;;;;5111616;27;20091;-42
2023/07/21 07:40:52;;;;;;;5.05;2.35;;;25.40;96.20;;;;;;5113032;27;20042;-41
2023/07/21 07:43:18;;;;;;;3.78;2.97;;;25.70;95.50;;;;;;5111226;27;20047;-41
2023/07/21 07:45:43;;;;;;;4.43;2.53;;;25.40;95.30;;;;;;5114311;27;20352;-43
2023/07/21 07:48:10;;;;;;;5.57;2.80;;;25.30;96.50;;;;;;5113710;27;20362;-41
2023/07/21 07:50:40;;;;;;;6.70;2.90;;;25.20;96.60;;;;;;5114331;27;20043;-41
2023/07/21 07:53:06;;;;;;;7.35;3.03;;;25.10;96.80;;;;;;5111840;27;20526;-40
2023/07/21 07:55:42;;;;;;;4.70;2.22;;;25.30;96.90;;;;;;5113702;27;20130;-41
2023/07/21 07:58:09;;;;;;;3.55;2.00;;;25.00;95.40;;;;;;5095225;27;20087;-41
2023/07/21 08:00:37;;;;;;;4.90;2.90;;;24.90;95.60;;;;;;5093421;27;20085;-41
2023/07/21 08:03:04;;;;;;;2.75;2.05;;;24.80;94.80;;;;;;5112054;27;20043;-42
2023/07/21 08:05:39;;;;;;;1.70;1.50;;;24.70;96.30;;;;;;5114942;27;20100;-41
2023/07/21 08:08:07;;;;;;;4.05;2.00;;;24.30;94.30;;;;;;5115072;27;20043;-41
2023/07/21 08:10:34;;;;;;;4.45;2.20;;;23.80;95.50;;;;;;5090839;27;20039;-42
2023/07/21 08:13:01;;;;;;;2.92;1.83;;;23.70;95.60;;;;;;5094487;27;20043;-43
2023/07/21 08:15:28;;;;;;;2.20;1.60;;;23.50;96.10;;;;;;5112770;27;20035;-42
2023/07/21 08:17:54;;;;;;;2.38;1.60;;;23.40;97.00;;;;;;5114281;27;20039;-42
2023/07/21 08:20:20;;;;;;;3.47;1.50;;;23.30;95.40;;;;;;5113184;27;20039;-43
2023/07/21 08:22:47;;;;;;;2.35;1.67;;;23.20;96.10;;;;;;5112587;27;20560;-41
2023/07/21 08:25:13;;;;;;;2.88;1.73;;;23.30;96.80;;;;;;5091566;27;20381;-42
2023/07/21 08:27:38;;;;;;;3.45;2.13;;;23.20;97.00;;;;;;5107873;27;20046;-41
2023/07/21 08:30:05;;;;;;;2.92;1.67;;;23.20;96.90;;;;;;5112594;27;20050;-41
2023/07/21 08:32:31;;;;;;;3.60;1.88;;;23.20;97.20;;;;;;5110240;27;20046;-40
2023/07/21 08:34:57;;;;;;;6.28;2.20;;;23.20;97.30;;;;;;5112921;27;20490;-42
2023/07/21 08:37:23;;;;;;;2.38;1.85;;;23.00;97.00;;;;;;5111637;27;20050;-41
2023/07/21 08:39:49;;;;;;;4.65;1.60;;;23.20;96.70;;;;;;5094835;27;20043;-42
2023/07/21 08:42:15;;;;;;;3.13;1.73;;;23.50;96.20;;;;;;5112548;27;20318;-41
2023/07/21 08:44:42;;;;;;;3.35;1.58;;;23.70;95.00;;;;;;5112851;27;20449;-41
2023/07/21 08:47:08;;;;;;;3.33;1.67;;;23.80;94.80;;;;;;5113159;27;20051;-41
2023/07/21 08:49:34;;;;;;;4.05;2.22;;;23.90;93.90;;;;;;5112584;27;20497;-41
2023/07/21 08:51:59;;;;;;;3.30;1.90;;;24.30;93.40;;;;;;5112209;27;20415;-42
2023/07/21 08:54:26;;;;;;;3.08;1.90;;;24.10;93.70;;;;;;5112791;27;20032;-41
2023/07/21 08:56:52;;;;;;;3.88;2.25;;;24.40;94.40;;;;;;5113537;27;20053;-44
2023/07/21 08:59:18;;;;;;;3.28;1.80;;;24.50;95.60;;;;;;5113262;27;20036;-41
2023/07/21 09:01:43;;;;;;;7.88;2.38;;;24.40;94.70;;;;;;5111988;27;20046;-41
2023/07/21 09:04:20;;;;;;;9.48;2.75;;;24.00;95.20;;;;;;5113518;27;20043;-41
2023/07/21 09:06:58;;;;;;;3.72;2.00;;;23.80;94.50;;;;;;5113154;27;20031;-41
2023/07/21 09:09:28;;;;;;;2.45;2.15;;;23.40;95.20;;;;;;5118632;27;20054;-41
2023/07/21 09:12:07;;;;;;;3.00;2.28;;;23.30;96.40;;;;;;5114263;27;20485;-41
2023/07/21 09:14:41;;;;;;;2.75;2.00;;;23.10;96.80;;;;;;5114189;27;20031;-41
2023/07/21 09:17:12;;;;;;;2.60;2.17;;;23.00;97.50;;;;;;5113685;27;20035;-41
2023/07/21 09:19:43;;;;;;;2.25;1.90;;;22.90;97.40;;;;;;5112022;27;20122;-41
2023/07/21 09:22:09;;;;;;;2.33;1.50;;;22.90;97.40;;;;;;5115227;27;20046;-41
2023/07/21 09:24:37;;;;;;;5.47;1.60;;;22.80;96.80;;;;;;5109330;27;20430;-41
2023/07/21 09:27:16;;;;;;;1.65;1.15;;;22.80;97.10;;;;;;5112114;27;20117;-43
2023/07/21 09:29:42;;;;;;;3.88;1.55;;;22.90;96.30;;;;;;5093417;27;20047;-41
2023/07/21 09:32:19;;;;;;;2.33;1.52;;;23.10;96.90;;;;;;5112354;27;20095;-41
2023/07/21 09:35:05;;;;;;;6.50;1.60;;;23.00;97.60;;;;;;5113732;27;20042;-42
2023/07/21 09:37:33;;;;;;;4.00;1.63;;;23.30;98.10;;;;;;5111648;27;20043;-41
2023/07/21 09:40:05;;;;;;;7.60;2.40;;;23.40;97.90;;;;;;5111979;27;20115;-42
2023/07/21 09:42:34;;;;;;;5.07;2.70;;;23.70;97.50;;;;;;5111242;27;20485;-41
2023/07/21 09:45:00;;;;;;;4.53;2.67;;;24.00;97.20;;;;;;5090956;27;20047;-41
2023/07/21 09:47:26;;;;;;;2.90;2.60;;;24.20;97.50;;;;;;5112646;27;20047;-41
2023/07/21 09:49:53;;;;;;;5.28;2.92;;;24.60;97.00;;;;;;5112719;27;20039;-41
2023/07/21 09:52:20;;;;;;;5.32;3.47;;;24.40;97.40;;;;;;5111333;27;20323;-41
2023/07/21 09:55:09;;;;;;;3.35;3.05;;;24.40;97.50;;;;;;5105773;27;20935;-41
2023/07/21 09:57:47;;;;;;;3.38;2.35;;;24.40;95.70;;;;;;5103042;27;20088;-42
2023/07/21 10:00:15;;;;;;;3.65;2.78;;;24.20;94.70;;;;;;5085669;27;20404;-41
2023/07/21 10:02:42;;;;;;;5.13;3.58;;;24.10;95.60;;;;;;5110392;27;20047;-41
2023/07/21 10:05:13;;;;;;;3.72;3.20;;;24.00;96.40;;;;;;5109525;27;20067;-40
2023/07/21 10:07:43;;;;;;;6.53;3.13;;;24.10;97.30;;;;;;5102741;27;20095;-40
2023/07/21 10:10:10;;;;;;;3.53;3.22;;;24.00;96.90;;;;;;5098361;27;20035;-42
2023/07/21 10:13:07;;;;;;;4.13;3.20;;;23.90;96.50;;;;;;5104408;27;20138;-41
2023/07/21 10:15:34;;;;;;;3.65;2.70;;;24.10;98.00;;;;;;5083750;27;20047;-40
2023/07/21 10:18:06;;;;;;;3.05;1.98;;;24.40;96.70;;;;;;5102892;27;20412;-43
2023/07/21 10:20:39;;;;;;;2.85;2.28;;;24.50;96.00;;;;;;5103974;27;20428;-41
2023/07/21 10:23:05;;;;;;;3.15;1.80;;;24.70;96.20;;;;;;5088140;28;20498;-40
2023/07/21 10:25:47;;;;;;;3.63;2.40;;;24.70;96.30;;;;;;5106101;27;20055;-42
2023/07/21 10:28:15;;;;;;;3.13;2.50;;;24.80;94.10;;;;;;5110597;27;20076;-42
2023/07/21 10:30:41;;;;;;;3.15;2.85;;;24.70;95.20;;;;;;5111872;27;20054;-41
2023/07/21 10:33:11;;;;;;;6.05;3.20;;;24.30;96.00;;;;;;5114800;27;20640;-41
2023/07/21 10:35:38;;;;;;;2.85;2.40;;;24.50;95.90;;;;;;5095209;27;20116;-40
2023/07/21 10:38:13;;;;;;;3.03;2.72;;;24.70;95.10;;;;;;5096691;27;20046;-40
2023/07/21 10:40:44;;;;;;;3.78;1.90;;;24.70;95.30;;;;;;5096744;27;20043;-41
2023/07/21 10:43:10;;;;;;;3.45;2.85;;;24.60;94.40;;;;;;5111858;27;20149;-42
2023/07/21 10:45:37;;;;;;;3.47;2.28;;;24.80;94.40;;;;;;5113166;27;20038;-42
2023/07/21 10:48:30;;;;;;;3.83;2.88;;;24.90;94.80;;;;;;5115074;27;20047;-42
2023/07/21 10:50:58;;;;;;;3.97;3.30;;;24.90;93.70;;;;;;5110860;27;20087;-42
2023/07/21 10:53:24;;;;;;;3.03;2.33;;;24.90;94.60;;;;;;5113666;27;20043;-43
2023/07/21 10:55:53;;;;;;;3.65;2.42;;;24.70;94.40;;;;;;5111476;27;20389;-43
2023/07/21 10:58:19;;;;;;;3.35;2.40;;;24.70;95.50;;;;;;5110515;27;20053;-41
2023/07/21 11:00:51;;;;;;;3.78;3.00;;;24.80;95.00;;;;;;5114011;27;20039;-40
2023/07/21 11:03:17;;;;;;;3.83;3.30;;;24.80;95.20;;;;;;5108963;27;20130;-41
2023/07/21 11:05:43;;;;;;;4.30;3.65;;;24.70;95.80;;;;;;5111159;27;20035;-42
2023/07/21 11:08:28;;;;;;;2.95;2.42;;;24.60;96.80;;;;;;5112497;27;20046;-43
2023/07/21 11:10:54;;;;;;;3.70;2.80;;;24.70;96.10;;;;;;5107472;27;20067;-41
2023/07/21 11:13:23;;;;;;;4.47;3.00;;;24.70;95.60;;;;;;5094435;27;20134;-42
2023/07/21 11:15:55;;;;;;;3.22;2.92;;;24.40;95.50;;;;;;5091911;27;20039;-42
2023/07/21 11:18:21;;;;;;;3.45;3.13;;;24.20;96.40;;;;;;5114678;27;20043;-42
2023/07/21 11:20:54;;;;;;;3.63;3.28;;;23.80;95.30;;;;;;5095088;27;20075;-41
2023/07/21 11:23:24;;;;;;;3.60;3.30;;;23.80;96.00;;;;;;5111717;27;20039;-43
2023/07/21 11:26:07;;;;;;;3.80;3.20;;;23.60;96.20;;;;;;5113543;27;20046;-42
2023/07/21 11:28:33;;;;;;;3.58;2.92;;;23.80;97.30;;;;;;5110917;27;20055;-43
2023/07/21 11:31:02;;;;;;;4.63;2.80;;;23.90;97.30;;;;;;5089643;27;20673;-41
2023/07/21 11:33:46;;;;;;;4.72;2.53;;;24.00;97.60;;;;;;5086528;27;20238;-41
2023/07/21 11:36:22;;;;;;;4.45;3.05;;;24.20;96.80;;;;;;5104837;27;20777;-41
2023/07/21 11:39:11;;;;;;;4.35;3.10;;;24.30;97.30;;;;;;5105315;27;20863;-41
2023/07/21 11:41:39;;;;;;;3.85;3.03;;;24.30;96.30;;;;;;5105021;27;20043;-41
2023/07/21 11:44:16;;;;;;;3.80;2.88;;;24.10;96.40;;;;;;5100279;27;20055;-41
2023/07/21 11:46:50;;;;;;;3.42;2.55;;;23.80;95.40;;;;;;5075745;27;20494;-41
2023/07/21 11:49:16;;;;;;;3.25;2.50;;;23.60;94.30;;;;;;5113767;27;20082;-40
2023/07/21 11:51:43;;;;;;;3.10;2.70;;;23.50;96.10;;;;;;5092856;27;20488;-40
2023/07/21 11:54:23;;;;;;;3.45;2.38;;;23.40;96.10;;;;;;5113860;27;20131;-43
2023/07/21 11:56:50;;;;;;;5.78;3.08;;;23.40;95.60;;;;;;5093367;27;20115;-41
2023/07/21 11:59:17;;;;;;;4.10;2.60;;;23.50;96.80;;;;;;5115421;27;20150;-42
2023/07/21 12:01:43;;;;;;;4.40;3.47;;;23.70;96.20;;;;;;5115654;27;20488;-41
2023/07/21 12:04:10;;;;;;;3.58;3.25;;;23.60;94.50;;;;;;5116583;27;20035;-40
2023/07/21 12:06:36;;;;;;;4.22;3.63;;;23.40;94.30;;;;;;5095621;27;20050;-40
2023/07/21 12:09:05;;;;;;;6.90;3.58;;;23.10;94.00;;;;;;5117799;27;20095;-41
2023/07/21 12:11:32;;;;;;;4.68;4.05;;;22.80;95.00;;;;;;5111234;27;20070;-42
2023/07/21 12:13:58;;;;;;;5.95;2.60;;;21.80;98.00;;;;;;5094920;27;20054;-41
2023/07/21 12:16:24;;;;;;;7.30;3.30;;;21.40;97.90;;;;;;5094136;27;20051;-40
2023/07/21 12:18:50;;;;;;;2.60;1.92;;;20.70;99.20;;;;;;5115464;27;20793;-40
2023/07/21 12:21:17;;;;;;;5.05;1.95;;;20.20;99.90;;;;;;5112377;27;20340;-40
2023/07/21 12:23:43;;;;;;;5.60;2.33;;;19.80;99.90;;;;;;5112822;27;20057;-40
2023/07/21 12:26:09;;;;;;;3.67;2.63;;;19.50;99.90;;;;;;5091861;27;20055;-41
2023/07/21 12:28:35;;;;;;;4.05;2.30;;;19.20;99.90;;;;;;5092963;27;20100;-40
2023/07/21 12:31:01;;;;;;;3.65;2.65;;;19.00;99.90;;;;;;5098928;27;20139;-40
2023/07/21 12:33:28;;;;;;;8.55;3.28;;;18.50;99.90;;;;;;5103779;27;20044;-40
2023/07/21 12:35:54;;;;;;;5.22;2.60;;;18.40;99.90;;;;;;5104721;27;20092;-40
2023/07/21 12:38:20;;;;;;;6.00;3.40;;;18.30;99.90;;;;;;5102320;27;20189;-40
2023/07/21 12:40:46;;;;;;;6.32;3.30;;;18.00;99.90;;;;;;5104204;27;20163;-40
2023/07/21 12:43:12;;;;;;;3.03;2.70;;;18.00;99.90;;;;;;5101058;27;20827;-40
2023/07/21 12:45:39;;;;;;;5.40;2.83;;;17.90;99.90;;;;;;5111683;27;20042;-40
2023/07/21 12:48:05;;;;;;;5.07;3.17;;;18.00;99.90;;;;;;5109818;27;20041;-40
2023/07/21 12:50:30;;;;;;;5.80;3.00;;;17.90;99.90;;;;;;5101963;27;20047;-42